Terminal Aerodrome Forecast
Issued by NWS

Home | Current Version | Previous Version | Text Only | Print | Product List | Glossary On
Versions: 1 2 3 4 5 6 7 8 9 10 11 12 13 14 15 16 17 18 19 20 21 22 23 24 25 26 27 28 29 30 31 32 33 34 35 36 37 38 39 40 41 42 43 44 45 46 47 48 49 50
117
FTUS45 KBOU 022338
TAFAPA
TAF
KAPA 022338Z 0300/0324 VRB05KT P6SM FEW110 FEW220
     FM030300 23006KT P6SM FEW220
     FM030600 19007KT P6SM FEW140 SCT250
     FM031500 VRB05KT P6SM SCT070 SCT220
     FM031700 35014KT P6SM SCT080 SCT220
     FM032300 01014KT P6SM SCT090 SCT220=

USA.gov is the U.S. government's official web portal to all federal, state and local government web resources and services.